sensor_id;sensor_type;location;lat;lon;timestamp;P1;durP1;ratioP1;P2;durP2;ratioP2
20251;SDS011;10284;58.364;15.550;2023-05-07T00:00:04;3.88;;;2.20;;
20251;SDS011;10284;58.364;15.550;2023-05-07T00:02:33;4.22;;;2.67;;
20251;SDS011;10284;58.364;15.550;2023-05-07T00:04:59;5.03;;;2.30;;
20251;SDS011;10284;58.364;15.550;2023-05-07T00:07:24;3.28;;;2.30;;
20251;SDS011;10284;58.364;15.550;2023-05-07T00:09:50;4.80;;;2.17;;
20251;SDS011;10284;58.364;15.550;2023-05-07T00:12:15;9.20;;;2.60;;
20251;SDS011;10284;58.364;15.550;2023-05-07T00:14:41;3.95;;;2.38;;
20251;SDS011;10284;58.364;15.550;2023-05-07T00:17:06;6.30;;;2.40;;
20251;SDS011;10284;58.364;15.550;2023-05-07T00:19:32;4.45;;;2.10;;
20251;SDS011;10284;58.364;15.550;2023-05-07T00:21:57;3.75;;;2.40;;
20251;SDS011;10284;58.364;15.550;2023-05-07T00:24:23;3.33;;;2.30;;
20251;SDS011;10284;58.364;15.550;2023-05-07T00:26:49;3.97;;;2.40;;
20251;SDS011;10284;58.364;15.550;2023-05-07T00:29:14;4.75;;;2.88;;
20251;SDS011;10284;58.364;15.550;2023-05-07T00:31:40;4.53;;;2.80;;
20251;SDS011;10284;58.364;15.550;2023-05-07T00:34:05;4.95;;;2.58;;
20251;SDS011;10284;58.364;15.550;2023-05-07T00:36:31;4.85;;;2.67;;
20251;SDS011;10284;58.364;15.550;2023-05-07T00:38:58;4.78;;;2.97;;
20251;SDS011;10284;58.364;15.550;2023-05-07T00:41:25;6.50;;;3.00;;
20251;SDS011;10284;58.364;15.550;2023-05-07T00:43:50;3.15;;;2.63;;
20251;SDS011;10284;58.364;15.550;2023-05-07T00:46:16;4.32;;;2.42;;
20251;SDS011;10284;58.364;15.550;2023-05-07T00:48:42;7.93;;;2.55;;
20251;SDS011;10284;58.364;15.550;2023-05-07T00:51:09;3.97;;;2.80;;
20251;SDS011;10284;58.364;15.550;2023-05-07T00:53:36;6.07;;;2.88;;
20251;SDS011;10284;58.364;15.550;2023-05-07T00:56:01;4.30;;;2.88;;
20251;SDS011;10284;58.364;15.550;2023-05-07T00:58:27;4.25;;;2.85;;
20251;SDS011;10284;58.364;15.550;2023-05-07T01:00:52;4.47;;;2.75;;
20251;SDS011;10284;58.364;15.550;2023-05-07T01:03:18;5.85;;;2.88;;
20251;SDS011;10284;58.364;15.550;2023-05-07T01:05:43;3.40;;;2.60;;
20251;SDS011;10284;58.364;15.550;2023-05-07T01:08:10;4.57;;;3.10;;
20251;SDS011;10284;58.364;15.550;2023-05-07T01:10:36;4.80;;;3.15;;
20251;SDS011;10284;58.364;15.550;2023-05-07T01:13:02;4.95;;;2.70;;
20251;SDS011;10284;58.364;15.550;2023-05-07T01:15:27;3.85;;;2.80;;
20251;SDS011;10284;58.364;15.550;2023-05-07T01:17:53;5.00;;;2.90;;
20251;SDS011;10284;58.364;15.550;2023-05-07T01:20:19;4.13;;;2.72;;
20251;SDS011;10284;58.364;15.550;2023-05-07T01:22:44;4.47;;;2.60;;
20251;SDS011;10284;58.364;15.550;2023-05-07T01:25:10;4.15;;;3.10;;
20251;SDS011;10284;58.364;15.550;2023-05-07T01:27:35;6.07;;;3.13;;
20251;SDS011;10284;58.364;15.550;2023-05-07T01:30:02;5.20;;;3.05;;
20251;SDS011;10284;58.364;15.550;2023-05-07T01:32:32;3.63;;;2.70;;
20251;SDS011;10284;58.364;15.550;2023-05-07T01:35:00;7.00;;;2.95;;
20251;SDS011;10284;58.364;15.550;2023-05-07T01:37:28;4.13;;;2.85;;
20251;SDS011;10284;58.364;15.550;2023-05-07T01:39:54;5.70;;;3.22;;
20251;SDS011;10284;58.364;15.550;2023-05-07T01:42:19;6.35;;;3.17;;
20251;SDS011;10284;58.364;15.550;2023-05-07T01:44:45;6.65;;;2.88;;
20251;SDS011;10284;58.364;15.550;2023-05-07T01:47:11;5.55;;;2.92;;
20251;SDS011;10284;58.364;15.550;2023-05-07T01:49:37;5.22;;;2.90;;
20251;SDS011;10284;58.364;15.550;2023-05-07T01:52:02;3.85;;;2.80;;
20251;SDS011;10284;58.364;15.550;2023-05-07T01:54:28;3.45;;;2.50;;
20251;SDS011;10284;58.364;15.550;2023-05-07T01:56:55;6.85;;;2.90;;
20251;SDS011;10284;58.364;15.550;2023-05-07T01:59:21;5.32;;;2.90;;
20251;SDS011;10284;58.364;15.550;2023-05-07T02:01:46;6.25;;;3.00;;
20251;SDS011;10284;58.364;15.550;2023-05-07T02:04:12;4.05;;;2.70;;
20251;SDS011;10284;58.364;15.550;2023-05-07T02:06:38;4.55;;;3.08;;
20251;SDS011;10284;58.364;15.550;2023-05-07T02:09:03;6.60;;;3.08;;
20251;SDS011;10284;58.364;15.550;2023-05-07T02:11:29;6.45;;;3.15;;
20251;SDS011;10284;58.364;15.550;2023-05-07T02:13:55;6.07;;;2.53;;
20251;SDS011;10284;58.364;15.550;2023-05-07T02:16:20;6.47;;;2.92;;
20251;SDS011;10284;58.364;15.550;2023-05-07T02:18:46;5.72;;;3.08;;
20251;SDS011;10284;58.364;15.550;2023-05-07T02:21:12;3.65;;;2.90;;
20251;SDS011;10284;58.364;15.550;2023-05-07T02:23:37;3.42;;;2.50;;
20251;SDS011;10284;58.364;15.550;2023-05-07T02:26:03;6.78;;;2.45;;
20251;SDS011;10284;58.364;15.550;2023-05-07T02:28:29;6.47;;;3.03;;
20251;SDS011;10284;58.364;15.550;2023-05-07T02:30:55;5.97;;;3.20;;
20251;SDS011;10284;58.364;15.550;2023-05-07T02:33:20;4.82;;;2.55;;
20251;SDS011;10284;58.364;15.550;2023-05-07T02:35:46;6.50;;;3.08;;
20251;SDS011;10284;58.364;15.550;2023-05-07T02:38:11;3.88;;;2.92;;
20251;SDS011;10284;58.364;15.550;2023-05-07T02:40:37;5.63;;;2.67;;
20251;SDS011;10284;58.364;15.550;2023-05-07T02:43:05;6.18;;;3.03;;
20251;SDS011;10284;58.364;15.550;2023-05-07T02:45:31;5.70;;;3.13;;
20251;SDS011;10284;58.364;15.550;2023-05-07T02:47:57;3.05;;;2.40;;
20251;SDS011;10284;58.364;15.550;2023-05-07T02:50:23;4.03;;;2.70;;
20251;SDS011;10284;58.364;15.550;2023-05-07T02:52:48;6.15;;;2.75;;
20251;SDS011;10284;58.364;15.550;2023-05-07T02:55:14;5.68;;;2.60;;
20251;SDS011;10284;58.364;15.550;2023-05-07T02:57:39;3.08;;;2.38;;
20251;SDS011;10284;58.364;15.550;2023-05-07T03:00:12;5.70;;;2.70;;
20251;SDS011;10284;58.364;15.550;2023-05-07T03:02:37;5.35;;;2.50;;
20251;SDS011;10284;58.364;15.550;2023-05-07T03:05:03;5.88;;;2.70;;
20251;SDS011;10284;58.364;15.550;2023-05-07T03:07:29;5.00;;;2.35;;
20251;SDS011;10284;58.364;15.550;2023-05-07T03:09:54;5.55;;;2.60;;
20251;SDS011;10284;58.364;15.550;2023-05-07T03:12:20;3.53;;;2.25;;
20251;SDS011;10284;58.364;15.550;2023-05-07T03:14:45;4.18;;;2.47;;
20251;SDS011;10284;58.364;15.550;2023-05-07T03:17:11;5.88;;;3.10;;
20251;SDS011;10284;58.364;15.550;2023-05-07T03:19:36;3.55;;;2.72;;
20251;SDS011;10284;58.364;15.550;2023-05-07T03:22:02;3.58;;;2.60;;
20251;SDS011;10284;58.364;15.550;2023-05-07T03:24:27;2.97;;;2.25;;
20251;SDS011;10284;58.364;15.550;2023-05-07T03:26:53;5.55;;;2.35;;
20251;SDS011;10284;58.364;15.550;2023-05-07T03:29:18;4.78;;;2.53;;
20251;SDS011;10284;58.364;15.550;2023-05-07T03:31:44;4.18;;;2.33;;
20251;SDS011;10284;58.364;15.550;2023-05-07T03:34:10;4.55;;;2.13;;
20251;SDS011;10284;58.364;15.550;2023-05-07T03:36:35;2.60;;;2.25;;
20251;SDS011;10284;58.364;15.550;2023-05-07T03:39:01;2.72;;;2.20;;
20251;SDS011;10284;58.364;15.550;2023-05-07T03:41:26;3.30;;;2.20;;
20251;SDS011;10284;58.364;15.550;2023-05-07T03:43:52;2.85;;;2.28;;
20251;SDS011;10284;58.364;15.550;2023-05-07T03:46:17;5.38;;;2.03;;
20251;SDS011;10284;58.364;15.550;2023-05-07T03:48:42;3.72;;;2.47;;
20251;SDS011;10284;58.364;15.550;2023-05-07T03:51:08;3.03;;;2.05;;
20251;SDS011;10284;58.364;15.550;2023-05-07T03:53:33;2.97;;;1.88;;
20251;SDS011;10284;58.364;15.550;2023-05-07T03:55:59;2.78;;;2.15;;
20251;SDS011;10284;58.364;15.550;2023-05-07T03:58:24;9.80;;;2.40;;
20251;SDS011;10284;58.364;15.550;2023-05-07T04:00:49;5.30;;;2.35;;
20251;SDS011;10284;58.364;15.550;2023-05-07T04:03:15;4.13;;;2.65;;
20251;SDS011;10284;58.364;15.550;2023-05-07T04:05:40;3.72;;;2.33;;
20251;SDS011;10284;58.364;15.550;2023-05-07T04:08:06;8.45;;;2.70;;
20251;SDS011;10284;58.364;15.550;2023-05-07T04:10:32;3.50;;;2.50;;
20251;SDS011;10284;58.364;15.550;2023-05-07T04:12:57;5.85;;;2.13;;
20251;SDS011;10284;58.364;15.550;2023-05-07T04:15:23;3.15;;;2.20;;
20251;SDS011;10284;58.364;15.550;2023-05-07T04:17:48;6.50;;;2.47;;
20251;SDS011;10284;58.364;15.550;2023-05-07T04:20:14;5.07;;;2.10;;
20251;SDS011;10284;58.364;15.550;2023-05-07T04:22:41;4.95;;;2.13;;
20251;SDS011;10284;58.364;15.550;2023-05-07T04:25:07;4.13;;;2.35;;
20251;SDS011;10284;58.364;15.550;2023-05-07T04:27:34;6.25;;;2.67;;
20251;SDS011;10284;58.364;15.550;2023-05-07T04:29:59;3.20;;;2.45;;
20251;SDS011;10284;58.364;15.550;2023-05-07T04:32:25;3.30;;;2.60;;
20251;SDS011;10284;58.364;15.550;2023-05-07T04:34:51;3.42;;;2.45;;
20251;SDS011;10284;58.364;15.550;2023-05-07T04:37:16;3.90;;;2.88;;
20251;SDS011;10284;58.364;15.550;2023-05-07T04:39:42;3.42;;;2.20;;
20251;SDS011;10284;58.364;15.550;2023-05-07T04:42:07;4.40;;;2.45;;
20251;SDS011;10284;58.364;15.550;2023-05-07T04:44:34;4.55;;;2.33;;
20251;SDS011;10284;58.364;15.550;2023-05-07T04:47:00;5.30;;;2.72;;
20251;SDS011;10284;58.364;15.550;2023-05-07T04:49:25;6.13;;;2.20;;
20251;SDS011;10284;58.364;15.550;2023-05-07T04:51:51;2.88;;;2.28;;
20251;SDS011;10284;58.364;15.550;2023-05-07T04:54:16;6.60;;;2.50;;
20251;SDS011;10284;58.364;15.550;2023-05-07T04:56:42;3.70;;;2.30;;
20251;SDS011;10284;58.364;15.550;2023-05-07T04:59:07;4.22;;;2.25;;
20251;SDS011;10284;58.364;15.550;2023-05-07T05:01:33;7.28;;;2.92;;
20251;SDS011;10284;58.364;15.550;2023-05-07T05:03:58;4.50;;;2.53;;
20251;SDS011;10284;58.364;15.550;2023-05-07T05:06:25;4.03;;;2.60;;
20251;SDS011;10284;58.364;15.550;2023-05-07T05:08:50;3.80;;;2.38;;
20251;SDS011;10284;58.364;15.550;2023-05-07T05:11:16;4.43;;;2.40;;
20251;SDS011;10284;58.364;15.550;2023-05-07T05:13:41;4.25;;;2.40;;
20251;SDS011;10284;58.364;15.550;2023-05-07T05:16:07;3.80;;;2.40;;
20251;SDS011;10284;58.364;15.550;2023-05-07T05:18:32;4.07;;;2.38;;
20251;SDS011;10284;58.364;15.550;2023-05-07T05:20:58;7.95;;;2.67;;
20251;SDS011;10284;58.364;15.550;2023-05-07T05:23:23;2.72;;;2.10;;
20251;SDS011;10284;58.364;15.550;2023-05-07T05:25:49;3.78;;;2.10;;
20251;SDS011;10284;58.364;15.550;2023-05-07T05:28:14;3.80;;;2.22;;
20251;SDS011;10284;58.364;15.550;2023-05-07T05:30:40;2.65;;;2.05;;
20251;SDS011;10284;58.364;15.550;2023-05-07T05:33:05;2.47;;;2.20;;
20251;SDS011;10284;58.364;15.550;2023-05-07T05:35:31;3.10;;;2.40;;
20251;SDS011;10284;58.364;15.550;2023-05-07T05:37:56;2.70;;;2.17;;
20251;SDS011;10284;58.364;15.550;2023-05-07T05:40:22;4.05;;;2.38;;
20251;SDS011;10284;58.364;15.550;2023-05-07T05:42:47;4.13;;;2.08;;
20251;SDS011;10284;58.364;15.550;2023-05-07T05:45:13;6.13;;;2.08;;
20251;SDS011;10284;58.364;15.550;2023-05-07T05:47:38;5.05;;;2.17;;
20251;SDS011;10284;58.364;15.550;2023-05-07T05:50:05;3.83;;;2.40;;
20251;SDS011;10284;58.364;15.550;2023-05-07T05:52:31;4.78;;;2.15;;
20251;SDS011;10284;58.364;15.550;2023-05-07T05:54:57;4.03;;;2.10;;
20251;SDS011;10284;58.364;15.550;2023-05-07T05:57:22;3.40;;;2.13;;
20251;SDS011;10284;58.364;15.550;2023-05-07T05:59:48;2.60;;;2.08;;
20251;SDS011;10284;58.364;15.550;2023-05-07T06:02:13;2.78;;;1.80;;
20251;SDS011;10284;58.364;15.550;2023-05-07T06:04:38;2.40;;;1.75;;
20251;SDS011;10284;58.364;15.550;2023-05-07T06:07:04;6.43;;;2.05;;
20251;SDS011;10284;58.364;15.550;2023-05-07T06:09:30;3.00;;;2.33;;
20251;SDS011;10284;58.364;15.550;2023-05-07T06:11:55;3.38;;;2.00;;
20251;SDS011;10284;58.364;15.550;2023-05-07T06:14:20;4.35;;;1.90;;
20251;SDS011;10284;58.364;15.550;2023-05-07T06:16:46;3.13;;;2.03;;
20251;SDS011;10284;58.364;15.550;2023-05-07T06:19:11;3.05;;;2.00;;
20251;SDS011;10284;58.364;15.550;2023-05-07T06:21:38;3.13;;;2.03;;
20251;SDS011;10284;58.364;15.550;2023-05-07T06:24:04;4.10;;;1.73;;
20251;SDS011;10284;58.364;15.550;2023-05-07T06:26:29;4.07;;;2.00;;
20251;SDS011;10284;58.364;15.550;2023-05-07T06:28:55;3.35;;;2.00;;
20251;SDS011;10284;58.364;15.550;2023-05-07T06:31:20;3.85;;;2.00;;
20251;SDS011;10284;58.364;15.550;2023-05-07T06:33:46;6.20;;;2.13;;
20251;SDS011;10284;58.364;15.550;2023-05-07T06:36:11;2.67;;;1.83;;
20251;SDS011;10284;58.364;15.550;2023-05-07T06:38:37;2.35;;;1.98;;
20251;SDS011;10284;58.364;15.550;2023-05-07T06:41:02;2.72;;;1.85;;
20251;SDS011;10284;58.364;15.550;2023-05-07T06:43:28;3.10;;;1.60;;
20251;SDS011;10284;58.364;15.550;2023-05-07T06:45:53;3.65;;;1.85;;
20251;SDS011;10284;58.364;15.550;2023-05-07T06:48:19;3.13;;;1.65;;
20251;SDS011;10284;58.364;15.550;2023-05-07T06:50:45;3.50;;;1.77;;
20251;SDS011;10284;58.364;15.550;2023-05-07T06:53:10;5.03;;;1.80;;
20251;SDS011;10284;58.364;15.550;2023-05-07T06:55:36;2.70;;;1.80;;
20251;SDS011;10284;58.364;15.550;2023-05-07T06:58:03;3.03;;;1.50;;
20251;SDS011;10284;58.364;15.550;2023-05-07T07:00:28;2.33;;;1.58;;
20251;SDS011;10284;58.364;15.550;2023-05-07T07:02:54;3.00;;;1.77;;
20251;SDS011;10284;58.364;15.550;2023-05-07T07:05:20;3.53;;;1.63;;
20251;SDS011;10284;58.364;15.550;2023-05-07T07:07:46;2.80;;;1.40;;
20251;SDS011;10284;58.364;15.550;2023-05-07T07:10:17;2.20;;;1.60;;
20251;SDS011;10284;58.364;15.550;2023-05-07T07:12:46;2.88;;;1.30;;
20251;SDS011;10284;58.364;15.550;2023-05-07T07:15:15;1.35;;;1.20;;
20251;SDS011;10284;58.364;15.550;2023-05-07T07:17:41;2.70;;;1.20;;
20251;SDS011;10284;58.364;15.550;2023-05-07T07:20:07;3.25;;;1.33;;
20251;SDS011;10284;58.364;15.550;2023-05-07T07:22:32;3.55;;;1.70;;
20251;SDS011;10284;58.364;15.550;2023-05-07T07:24:58;2.42;;;1.73;;
20251;SDS011;10284;58.364;15.550;2023-05-07T07:27:23;4.15;;;1.67;;
20251;SDS011;10284;58.364;15.550;2023-05-07T07:29:49;1.95;;;1.33;;
20251;SDS011;10284;58.364;15.550;2023-05-07T07:32:14;4.18;;;1.45;;
20251;SDS011;10284;58.364;15.550;2023-05-07T07:34:40;3.10;;;1.63;;
20251;SDS011;10284;58.364;15.550;2023-05-07T07:37:05;2.90;;;1.67;;
20251;SDS011;10284;58.364;15.550;2023-05-07T07:39:31;2.28;;;1.40;;
20251;SDS011;10284;58.364;15.550;2023-05-07T07:41:57;2.60;;;1.40;;
20251;SDS011;10284;58.364;15.550;2023-05-07T07:44:22;2.28;;;1.52;;
20251;SDS011;10284;58.364;15.550;2023-05-07T07:46:48;2.10;;;1.65;;
20251;SDS011;10284;58.364;15.550;2023-05-07T07:49:14;4.35;;;1.70;;
20251;SDS011;10284;58.364;15.550;2023-05-07T07:51:40;2.10;;;1.45;;
20251;SDS011;10284;58.364;15.550;2023-05-07T07:54:05;5.32;;;1.50;;
20251;SDS011;10284;58.364;15.550;2023-05-07T07:56:31;3.28;;;1.63;;
20251;SDS011;10284;58.364;15.550;2023-05-07T07:58:58;4.03;;;1.40;;
20251;SDS011;10284;58.364;15.550;2023-05-07T08:01:23;3.40;;;1.63;;
20251;SDS011;10284;58.364;15.550;2023-05-07T08:03:49;1.98;;;1.48;;
20251;SDS011;10284;58.364;15.550;2023-05-07T08:06:15;2.95;;;1.40;;
20251;SDS011;10284;58.364;15.550;2023-05-07T08:08:40;4.07;;;1.60;;
20251;SDS011;10284;58.364;15.550;2023-05-07T08:11:06;3.40;;;1.65;;
20251;SDS011;10284;58.364;15.550;2023-05-07T08:13:31;4.45;;;1.90;;
20251;SDS011;10284;58.364;15.550;2023-05-07T08:15:56;1.52;;;1.42;;
20251;SDS011;10284;58.364;15.550;2023-05-07T08:18:22;1.65;;;1.40;;
20251;SDS011;10284;58.364;15.550;2023-05-07T08:20:49;2.65;;;1.30;;
20251;SDS011;10284;58.364;15.550;2023-05-07T08:23:15;2.28;;;1.63;;
20251;SDS011;10284;58.364;15.550;2023-05-07T08:25:40;1.83;;;1.42;;
20251;SDS011;10284;58.364;15.550;2023-05-07T08:28:07;4.03;;;1.70;;
20251;SDS011;10284;58.364;15.550;2023-05-07T08:30:33;6.15;;;1.77;;
20251;SDS011;10284;58.364;15.550;2023-05-07T08:32:58;3.25;;;1.60;;
20251;SDS011;10284;58.364;15.550;2023-05-07T08:35:24;2.13;;;1.48;;
20251;SDS011;10284;58.364;15.550;2023-05-07T08:37:50;5.70;;;1.38;;
20251;SDS011;10284;58.364;15.550;2023-05-07T08:40:16;3.22;;;1.67;;
20251;SDS011;10284;58.364;15.550;2023-05-07T08:42:41;4.05;;;1.23;;
20251;SDS011;10284;58.364;15.550;2023-05-07T08:45:08;2.67;;;1.70;;
20251;SDS011;10284;58.364;15.550;2023-05-07T08:47:39;2.80;;;1.58;;
20251;SDS011;10284;58.364;15.550;2023-05-07T08:50:08;3.78;;;1.30;;
20251;SDS011;10284;58.364;15.550;2023-05-07T08:52:34;5.90;;;1.35;;
20251;SDS011;10284;58.364;15.550;2023-05-07T08:55:00;3.72;;;1.30;;
20251;SDS011;10284;58.364;15.550;2023-05-07T08:57:27;3.63;;;1.52;;
20251;SDS011;10284;58.364;15.550;2023-05-07T08:59:53;3.08;;;1.45;;
20251;SDS011;10284;58.364;15.550;2023-05-07T09:02:18;4.50;;;1.40;;
20251;SDS011;10284;58.364;15.550;2023-05-07T09:04:44;3.05;;;1.50;;
20251;SDS011;10284;58.364;15.550;2023-05-07T09:07:09;3.10;;;1.55;;
20251;SDS011;10284;58.364;15.550;2023-05-07T09:09:35;3.78;;;1.27;;
20251;SDS011;10284;58.364;15.550;2023-05-07T09:12:00;1.92;;;1.35;;
20251;SDS011;10284;58.364;15.550;2023-05-07T09:14:27;2.55;;;1.20;;
20251;SDS011;10284;58.364;15.550;2023-05-07T09:16:53;2.35;;;1.05;;
20251;SDS011;10284;58.364;15.550;2023-05-07T09:19:22;2.67;;;1.50;;
20251;SDS011;10284;58.364;15.550;2023-05-07T09:21:49;1.33;;;1.15;;
20251;SDS011;10284;58.364;15.550;2023-05-07T09:24:17;2.20;;;0.95;;
20251;SDS011;10284;58.364;15.550;2023-05-07T09:26:43;2.80;;;1.42;;
20251;SDS011;10284;58.364;15.550;2023-05-07T09:29:09;3.58;;;1.30;;
20251;SDS011;10284;58.364;15.550;2023-05-07T09:31:38;1.52;;;1.10;;
20251;SDS011;10284;58.364;15.550;2023-05-07T09:34:06;2.60;;;1.20;;
20251;SDS011;10284;58.364;15.550;2023-05-07T09:36:33;1.35;;;1.25;;
20251;SDS011;10284;58.364;15.550;2023-05-07T09:39:01;1.52;;;1.17;;
20251;SDS011;10284;58.364;15.550;2023-05-07T09:41:27;1.65;;;1.50;;
20251;SDS011;10284;58.364;15.550;2023-05-07T09:43:55;2.22;;;1.30;;
20251;SDS011;10284;58.364;15.550;2023-05-07T09:46:21;3.05;;;1.33;;
20251;SDS011;10284;58.364;15.550;2023-05-07T09:48:50;2.78;;;1.30;;
20251;SDS011;10284;58.364;15.550;2023-05-07T09:54:18;3.47;;;1.38;;
20251;SDS011;10284;58.364;15.550;2023-05-07T09:56:44;1.80;;;1.30;;
20251;SDS011;10284;58.364;15.550;2023-05-07T09:59:10;2.25;;;1.13;;
20251;SDS011;10284;58.364;15.550;2023-05-07T10:01:38;3.40;;;1.20;;
20251;SDS011;10284;58.364;15.550;2023-05-07T10:04:03;2.50;;;1.20;;
20251;SDS011;10284;58.364;15.550;2023-05-07T10:06:29;2.88;;;1.30;;
20251;SDS011;10284;58.364;15.550;2023-05-07T10:08:55;1.42;;;1.20;;
20251;SDS011;10284;58.364;15.550;2023-05-07T10:11:21;2.88;;;1.10;;
20251;SDS011;10284;58.364;15.550;2023-05-07T10:13:47;2.22;;;1.20;;
20251;SDS011;10284;58.364;15.550;2023-05-07T10:16:13;2.47;;;1.20;;
20251;SDS011;10284;58.364;15.550;2023-05-07T10:18:38;2.85;;;1.17;;
20251;SDS011;10284;58.364;15.550;2023-05-07T10:21:11;1.58;;;1.15;;
20251;SDS011;10284;58.364;15.550;2023-05-07T10:23:39;1.67;;;1.20;;
20251;SDS011;10284;58.364;15.550;2023-05-07T10:26:05;4.10;;;1.48;;
20251;SDS011;10284;58.364;15.550;2023-05-07T10:28:33;4.38;;;1.40;;
20251;SDS011;10284;58.364;15.550;2023-05-07T10:31:07;2.92;;;1.25;;
20251;SDS011;10284;58.364;15.550;2023-05-07T10:33:42;3.25;;;1.58;;
20251;SDS011;10284;58.364;15.550;2023-05-07T10:36:10;2.40;;;1.33;;
20251;SDS011;10284;58.364;15.550;2023-05-07T10:38:36;1.40;;;1.27;;
20251;SDS011;10284;58.364;15.550;2023-05-07T10:41:01;2.17;;;1.10;;
20251;SDS011;10284;58.364;15.550;2023-05-07T10:43:39;2.85;;;0.90;;
20251;SDS011;10284;58.364;15.550;2023-05-07T10:46:10;2.25;;;1.02;;
20251;SDS011;10284;58.364;15.550;2023-05-07T10:51:28;1.73;;;1.05;;
20251;SDS011;10284;58.364;15.550;2023-05-07T10:56:50;2.60;;;1.30;;
20251;SDS011;10284;58.364;15.550;2023-05-07T11:02:04;7.43;;;1.55;;
20251;SDS011;10284;58.364;15.550;2023-05-07T11:04:32;6.00;;;1.48;;
20251;SDS011;10284;58.364;15.550;2023-05-07T11:17:34;3.50;;;1.23;;
20251;SDS011;10284;58.364;15.550;2023-05-07T11:20:16;2.15;;;1.45;;
20251;SDS011;10284;58.364;15.550;2023-05-07T11:22:42;1.20;;;1.10;;
20251;SDS011;10284;58.364;15.550;2023-05-07T11:25:08;2.55;;;1.20;;
20251;SDS011;10284;58.364;15.550;2023-05-07T11:27:33;4.88;;;1.20;;
20251;SDS011;10284;58.364;15.550;2023-05-07T11:29:59;4.82;;;1.52;;
20251;SDS011;10284;58.364;15.550;2023-05-07T11:32:29;2.67;;;1.08;;
20251;SDS011;10284;58.364;15.550;2023-05-07T11:34:55;1.70;;;1.27;;
20251;SDS011;10284;58.364;15.550;2023-05-07T11:37:22;2.45;;;1.33;;
20251;SDS011;10284;58.364;15.550;2023-05-07T11:39:48;1.65;;;1.10;;
20251;SDS011;10284;58.364;15.550;2023-05-07T11:45:09;2.40;;;1.10;;
20251;SDS011;10284;58.364;15.550;2023-05-07T11:47:35;3.90;;;1.20;;
20251;SDS011;10284;58.364;15.550;2023-05-07T11:50:04;5.78;;;1.15;;
20251;SDS011;10284;58.364;15.550;2023-05-07T11:52:32;1.88;;;1.00;;
20251;SDS011;10284;58.364;15.550;2023-05-07T11:54:58;4.30;;;1.25;;
20251;SDS011;10284;58.364;15.550;2023-05-07T11:57:25;3.83;;;1.00;;
20251;SDS011;10284;58.364;15.550;2023-05-07T11:59:57;3.30;;;1.20;;
20251;SDS011;10284;58.364;15.550;2023-05-07T12:02:23;1.75;;;1.05;;
20251;SDS011;10284;58.364;15.550;2023-05-07T12:04:53;3.78;;;1.30;;
20251;SDS011;10284;58.364;15.550;2023-05-07T12:07:19;2.22;;;1.17;;
20251;SDS011;10284;58.364;15.550;2023-05-07T12:09:45;2.40;;;1.20;;
20251;SDS011;10284;58.364;15.550;2023-05-07T12:12:11;1.30;;;1.10;;
20251;SDS011;10284;58.364;15.550;2023-05-07T12:14:40;3.05;;;1.08;;
20251;SDS011;10284;58.364;15.550;2023-05-07T12:17:07;2.92;;;1.20;;
20251;SDS011;10284;58.364;15.550;2023-05-07T12:19:33;4.35;;;1.13;;
20251;SDS011;10284;58.364;15.550;2023-05-07T12:21:59;1.30;;;1.10;;
20251;SDS011;10284;58.364;15.550;2023-05-07T12:24:26;2.00;;;1.38;;
20251;SDS011;10284;58.364;15.550;2023-05-07T12:26:52;1.52;;;1.20;;
20251;SDS011;10284;58.364;15.550;2023-05-07T12:29:20;1.30;;;1.13;;
20251;SDS011;10284;58.364;15.550;2023-05-07T12:31:47;3.05;;;1.38;;
20251;SDS011;10284;58.364;15.550;2023-05-07T12:34:12;2.28;;;1.10;;
20251;SDS011;10284;58.364;15.550;2023-05-07T12:36:39;1.45;;;1.10;;
20251;SDS011;10284;58.364;15.550;2023-05-07T12:39:05;3.65;;;1.35;;
20251;SDS011;10284;58.364;15.550;2023-05-07T12:41:34;1.73;;;1.10;;
20251;SDS011;10284;58.364;15.550;2023-05-07T12:44:01;1.85;;;1.00;;
20251;SDS011;10284;58.364;15.550;2023-05-07T12:46:29;2.70;;;1.13;;
20251;SDS011;10284;58.364;15.550;2023-05-07T12:48:54;4.35;;;1.20;;
20251;SDS011;10284;58.364;15.550;2023-05-07T12:51:20;1.90;;;1.27;;
20251;SDS011;10284;58.364;15.550;2023-05-07T12:53:45;2.85;;;1.15;;
20251;SDS011;10284;58.364;15.550;2023-05-07T12:56:11;3.00;;;1.30;;
20251;SDS011;10284;58.364;15.550;2023-05-07T12:58:36;1.65;;;1.10;;
20251;SDS011;10284;58.364;15.550;2023-05-07T13:01:05;3.55;;;1.25;;
20251;SDS011;10284;58.364;15.550;2023-05-07T13:03:35;3.22;;;1.15;;
20251;SDS011;10284;58.364;15.550;2023-05-07T13:06:03;1.55;;;1.00;;
20251;SDS011;10284;58.364;15.550;2023-05-07T13:08:34;4.75;;;1.17;;
20251;SDS011;10284;58.364;15.550;2023-05-07T13:11:06;4.15;;;1.38;;
20251;SDS011;10284;58.364;15.550;2023-05-07T13:13:35;1.55;;;1.00;;
20251;SDS011;10284;58.364;15.550;2023-05-07T13:16:04;3.38;;;1.13;;
20251;SDS011;10284;58.364;15.550;2023-05-07T13:18:31;5.10;;;1.13;;
20251;SDS011;10284;58.364;15.550;2023-05-07T13:20:57;1.00;;;0.90;;
20251;SDS011;10284;58.364;15.550;2023-05-07T13:23:22;3.00;;;1.05;;
20251;SDS011;10284;58.364;15.550;2023-05-07T13:25:48;3.00;;;1.23;;
20251;SDS011;10284;58.364;15.550;2023-05-07T13:28:14;2.45;;;1.30;;
20251;SDS011;10284;58.364;15.550;2023-05-07T13:30:40;2.20;;;1.15;;
20251;SDS011;10284;58.364;15.550;2023-05-07T13:33:08;2.95;;;1.30;;
20251;SDS011;10284;58.364;15.550;2023-05-07T13:35:34;3.55;;;1.23;;
20251;SDS011;10284;58.364;15.550;2023-05-07T13:37:59;2.58;;;1.17;;
20251;SDS011;10284;58.364;15.550;2023-05-07T13:40:25;2.70;;;1.35;;
20251;SDS011;10284;58.364;15.550;2023-05-07T13:42:50;3.60;;;1.00;;
20251;SDS011;10284;58.364;15.550;2023-05-07T13:45:16;3.08;;;1.40;;
20251;SDS011;10284;58.364;15.550;2023-05-07T13:47:42;6.03;;;1.30;;
20251;SDS011;10284;58.364;15.550;2023-05-07T13:50:09;2.63;;;1.23;;
20251;SDS011;10284;58.364;15.550;2023-05-07T13:52:36;3.05;;;1.00;;
20251;SDS011;10284;58.364;15.550;2023-05-07T13:55:02;1.40;;;1.17;;
20251;SDS011;10284;58.364;15.550;2023-05-07T13:57:27;1.52;;;1.23;;
20251;SDS011;10284;58.364;15.550;2023-05-07T13:59:53;5.95;;;1.48;;
20251;SDS011;10284;58.364;15.550;2023-05-07T14:02:18;2.53;;;1.20;;
20251;SDS011;10284;58.364;15.550;2023-05-07T14:04:44;4.45;;;1.15;;
20251;SDS011;10284;58.364;15.550;2023-05-07T14:07:10;2.15;;;1.38;;
20251;SDS011;10284;58.364;15.550;2023-05-07T14:09:35;2.15;;;1.33;;
20251;SDS011;10284;58.364;15.550;2023-05-07T14:12:01;2.30;;;1.35;;
20251;SDS011;10284;58.364;15.550;2023-05-07T14:14:26;2.72;;;1.10;;
20251;SDS011;10284;58.364;15.550;2023-05-07T14:16:52;2.63;;;1.08;;
20251;SDS011;10284;58.364;15.550;2023-05-07T14:19:17;2.63;;;1.30;;
20251;SDS011;10284;58.364;15.550;2023-05-07T14:21:43;3.55;;;1.40;;
20251;SDS011;10284;58.364;15.550;2023-05-07T14:24:08;7.32;;;1.40;;
20251;SDS011;10284;58.364;15.550;2023-05-07T14:26:35;2.22;;;1.17;;
20251;SDS011;10284;58.364;15.550;2023-05-07T14:29:00;1.98;;;1.20;;
20251;SDS011;10284;58.364;15.550;2023-05-07T14:31:26;2.78;;;1.10;;
20251;SDS011;10284;58.364;15.550;2023-05-07T14:33:51;2.78;;;1.20;;
20251;SDS011;10284;58.364;15.550;2023-05-07T14:36:17;1.30;;;1.20;;
20251;SDS011;10284;58.364;15.550;2023-05-07T14:38:47;3.25;;;1.08;;
20251;SDS011;10284;58.364;15.550;2023-05-07T14:41:13;6.20;;;1.20;;
20251;SDS011;10284;58.364;15.550;2023-05-07T14:43:39;2.08;;;1.38;;
20251;SDS011;10284;58.364;15.550;2023-05-07T14:46:04;2.40;;;1.30;;
20251;SDS011;10284;58.364;15.550;2023-05-07T14:48:30;2.05;;;1.17;;
20251;SDS011;10284;58.364;15.550;2023-05-07T14:50:55;2.88;;;1.27;;